createdAt,value
2023-04-02T00:01:46.846Z,5.20
2023-04-02T00:05:58.515Z,4.67
2023-04-02T00:10:57.094Z,5.80
2023-04-02T00:15:13.049Z,4.67
2023-04-02T00:19:30.817Z,6.17
2023-04-02T00:23:44.218Z,4.33
2023-04-02T00:27:56.695Z,5.43
2023-04-02T00:32:20.126Z,6.30
2023-04-02T00:36:36.551Z,7.13
2023-04-02T00:40:49.781Z,5.07
2023-04-02T00:45:02.282Z,6.67
2023-04-02T00:49:34.900Z,6.57
2023-04-02T00:53:48.762Z,5.37
2023-04-02T00:58:01.574Z,5.23
2023-04-02T01:02:17.473Z,5.37
2023-04-02T01:06:34.249Z,5.97
2023-04-02T01:11:11.796Z,4.80
2023-04-02T01:15:53.008Z,5.80
2023-04-02T01:20:42.185Z,6.97
2023-04-02T01:24:58.131Z,6.37
2023-04-02T01:29:14.166Z,5.03
2023-04-02T01:33:30.981Z,5.00
2023-04-02T01:37:58.623Z,4.93
2023-04-02T01:42:33.326Z,6.80
2023-04-02T01:46:48.803Z,6.57
2023-04-02T01:51:05.382Z,5.73
2023-04-02T01:55:33.794Z,5.80
2023-04-02T01:59:46.158Z,5.80
2023-04-02T02:03:58.150Z,5.20
2023-04-02T02:08:27.617Z,7.47
2023-04-02T02:12:39.508Z,5.43
2023-04-02T02:16:53.934Z,7.07
2023-04-02T02:21:09.538Z,7.10
2023-04-02T02:25:27.963Z,10.70
2023-04-02T02:29:42.818Z,15.60
2023-04-02T02:34:00.876Z,8.23
2023-04-02T02:38:35.834Z,8.43
2023-04-02T02:43:01.459Z,7.63
2023-04-02T02:47:34.998Z,6.47
2023-04-02T02:52:15.474Z,6.17
2023-04-02T02:56:53.626Z,6.40
2023-04-02T03:01:05.414Z,8.83
2023-04-02T03:05:22.200Z,6.60
2023-04-02T03:09:53.762Z,5.53
2023-04-02T03:14:33.903Z,7.87
2023-04-02T03:18:54.867Z,5.37
2023-04-02T03:23:30.735Z,5.43
2023-04-02T03:27:46.689Z,4.70
2023-04-02T03:32:05.636Z,5.23
2023-04-02T03:36:50.045Z,5.50
2023-04-02T03:41:10.317Z,7.10
2023-04-02T03:45:27.009Z,6.73
2023-04-02T03:50:13.469Z,7.70
2023-04-02T03:54:26.116Z,7.90
2023-04-02T03:58:47.401Z,5.40
2023-04-02T04:03:31.137Z,5.93
2023-04-02T04:07:44.433Z,7.40
2023-04-02T04:12:22.194Z,6.80
2023-04-02T04:16:43.010Z,9.20
2023-04-02T04:21:05.981Z,10.37
2023-04-02T04:25:33.997Z,10.10
2023-04-02T04:30:10.394Z,7.40
2023-04-02T04:34:36.872Z,9.47
2023-04-02T04:38:55.648Z,6.37
2023-04-02T04:43:17.824Z,6.50
2023-04-02T04:47:36.890Z,7.87
2023-04-02T04:51:54.670Z,6.50
2023-04-02T04:56:18.663Z,5.83
2023-04-02T05:00:49.659Z,5.60
2023-04-02T05:05:04.125Z,7.50
2023-04-02T05:09:36.168Z,4.80
2023-04-02T05:14:00.644Z,5.37
2023-04-02T05:18:25.844Z,6.10
2023-04-02T05:22:50.288Z,6.13
2023-04-02T05:27:13.002Z,2.80
2023-04-02T05:31:31.207Z,4.00
2023-04-02T05:35:49.569Z,4.37
2023-04-02T05:40:14.663Z,5.20
2023-04-02T05:44:30.810Z,4.70
2023-04-02T05:48:45.074Z,7.30
2023-04-02T05:53:17.775Z,5.90
2023-04-02T05:57:44.475Z,2.93
2023-04-02T06:02:22.858Z,2.77
2023-04-02T06:06:43.622Z,3.43
2023-04-02T06:11:06.122Z,2.97
2023-04-02T06:15:21.578Z,1.97
2023-04-02T06:19:38.483Z,1.93
2023-04-02T06:24:01.857Z,4.00
2023-04-02T06:28:20.344Z,2.80
2023-04-02T06:32:37.228Z,2.53
2023-04-02T06:36:54.765Z,2.73
2023-04-02T06:41:17.470Z,2.13
2023-04-02T06:45:51.989Z,4.30
2023-04-02T06:50:18.992Z,2.47
2023-04-02T06:54:31.411Z,1.43
2023-04-02T06:58:48.758Z,2.17
2023-04-02T07:03:04.926Z,2.43
2023-04-02T07:07:16.786Z,3.50
2023-04-02T07:11:31.094Z,2.60
2023-04-02T07:15:48.860Z,2.77
2023-04-02T07:20:00.876Z,3.07
2023-04-02T07:24:13.128Z,2.73
2023-04-02T07:28:24.987Z,4.93
2023-04-02T07:32:38.307Z,3.43
2023-04-02T07:36:49.964Z,2.70
2023-04-02T07:41:06.570Z,3.30
2023-04-02T07:45:18.294Z,2.10
2023-04-02T07:49:29.961Z,3.53
2023-04-02T07:53:42.741Z,4.03
2023-04-02T07:57:56.844Z,6.90
2023-04-02T08:02:19.387Z,3.73
2023-04-02T08:06:31.463Z,5.27
2023-04-02T08:10:43.298Z,2.63
2023-04-02T08:14:54.970Z,3.27
2023-04-02T08:19:06.691Z,4.47
2023-04-02T08:23:18.429Z,3.00
2023-04-02T08:27:30.168Z,5.13
2023-04-02T08:31:41.877Z,3.60
2023-04-02T08:35:53.724Z,5.37
2023-04-02T08:40:07.452Z,3.83
2023-04-02T08:44:36.768Z,2.67
2023-04-02T08:48:55.488Z,2.57
2023-04-02T08:53:16.745Z,2.87
2023-04-02T08:57:47.303Z,3.40
2023-04-02T09:02:03.893Z,3.20
2023-04-02T09:06:19.409Z,2.60
2023-04-02T09:10:42.480Z,1.77
2023-04-02T09:15:18.572Z,3.07
2023-04-02T09:19:37.679Z,2.60
2023-04-02T09:23:50.137Z,2.53
2023-04-02T09:28:04.261Z,3.37
2023-04-02T09:33:07.662Z,2.77
2023-04-02T09:37:22.998Z,4.00
2023-04-02T09:41:37.031Z,2.77
2023-04-02T09:46:05.080Z,2.60
2023-04-02T09:50:23.412Z,2.60
2023-04-02T09:54:42.033Z,1.90
2023-04-02T09:59:17.307Z,2.73
2023-04-02T10:03:43.157Z,2.03
2023-04-02T10:08:07.210Z,2.30
2023-04-02T10:12:18.939Z,1.87
2023-04-02T10:16:36.216Z,2.27
2023-04-02T10:20:51.404Z,2.40
2023-04-02T10:25:13.616Z,1.50
2023-04-02T10:29:46.574Z,2.90
2023-04-02T10:34:10.059Z,2.70
2023-04-02T10:38:42.655Z,3.42
2023-04-02T10:43:07.216Z,2.35
2023-04-02T10:47:18.892Z,2.50
2023-04-02T10:51:38.894Z,3.70
2023-04-02T10:55:58.092Z,4.55
2023-04-02T11:00:19.010Z,3.58
2023-04-02T11:04:46.329Z,1.60
2023-04-02T11:09:05.318Z,1.48
2023-04-02T11:13:22.827Z,3.00
2023-04-02T11:17:34.735Z,1.52
2023-04-02T11:21:58.788Z,2.83
2023-04-02T11:26:34.817Z,7.85
2023-04-02T11:30:48.804Z,3.47
2023-04-02T11:35:32.140Z,1.63
2023-04-02T11:39:59.666Z,3.00
2023-04-02T11:44:23.099Z,2.85
2023-04-02T11:48:36.505Z,2.60
2023-04-02T11:52:48.525Z,3.53
2023-04-02T11:57:24.554Z,3.15
2023-04-02T12:02:04.030Z,2.05
2023-04-02T12:06:42.401Z,2.30
2023-04-02T12:11:02.398Z,4.47
2023-04-02T12:15:26.108Z,2.92
2023-04-02T12:19:37.831Z,2.20
2023-04-02T12:23:53.640Z,3.38
2023-04-02T12:28:09.475Z,1.83
2023-04-02T12:32:28.514Z,1.67
2023-04-02T12:36:55.159Z,1.80
2023-04-02T12:41:30.379Z,1.98
2023-04-02T12:45:42.767Z,3.13
2023-04-02T12:49:56.830Z,2.13
2023-04-02T12:54:15.163Z,2.38
2023-04-02T12:58:45.611Z,2.75
2023-04-02T13:03:04.542Z,2.63
2023-04-02T13:07:19.069Z,2.65
2023-04-02T13:11:39.485Z,3.22
2023-04-02T13:16:05.401Z,1.20
2023-04-02T13:20:38.582Z,3.58
2023-04-02T13:24:50.423Z,1.50
2023-04-02T13:29:29.360Z,2.90
2023-04-02T13:33:40.945Z,1.65
2023-04-02T13:37:52.610Z,2.05
2023-04-02T13:42:06.482Z,2.88
2023-04-02T13:46:43.371Z,1.40
2023-04-02T13:50:55.021Z,5.13
2023-04-02T13:55:06.854Z,1.55
2023-04-02T13:59:18.477Z,1.77
2023-04-02T14:03:30.341Z,2.15
2023-04-02T14:07:48.117Z,3.70
2023-04-02T14:12:03.474Z,2.20
2023-04-02T14:16:31.944Z,2.95
2023-04-02T14:21:21.332Z,1.50
2023-04-02T14:25:38.953Z,2.05
2023-04-02T14:30:04.791Z,1.33
2023-04-02T14:34:48.770Z,1.88
2023-04-02T14:39:06.155Z,2.03
2023-04-02T14:43:33.202Z,1.65
2023-04-02T14:47:53.307Z,3.42
2023-04-02T14:52:10.780Z,1.92
2023-04-02T14:56:25.127Z,2.97
2023-04-02T15:00:51.576Z,2.08
2023-04-02T15:05:17.699Z,2.17
2023-04-02T15:09:38.595Z,1.45
2023-04-02T15:14:05.210Z,3.22
2023-04-02T15:18:18.082Z,3.25
2023-04-02T15:22:38.583Z,1.53
2023-04-02T15:27:12.040Z,1.52
2023-04-02T15:31:29.908Z,3.60
2023-04-02T15:35:54.935Z,1.05
2023-04-02T15:40:20.636Z,1.33
2023-04-02T15:44:33.935Z,1.67
2023-04-02T15:48:57.594Z,1.27
2023-04-02T15:53:33.066Z,1.73
2023-04-02T15:58:10.933Z,2.40
2023-04-02T16:02:31.602Z,2.47
2023-04-02T16:07:09.154Z,1.47
2023-04-02T16:11:26.036Z,4.50
2023-04-02T16:15:45.126Z,3.93
2023-04-02T16:20:07.841Z,1.70
2023-04-02T16:24:19.771Z,1.23
2023-04-02T16:29:01.710Z,1.60
2023-04-02T16:33:25.489Z,2.97
2023-04-02T16:37:43.992Z,3.33
2023-04-02T16:42:04.718Z,1.20
2023-04-02T16:46:42.804Z,1.40
2023-04-02T16:51:04.241Z,2.40
2023-04-02T16:55:19.699Z,2.37
2023-04-02T16:59:44.182Z,1.00
2023-04-02T17:04:24.908Z,1.83
2023-04-02T17:08:44.052Z,1.80
2023-04-02T17:13:14.261Z,1.40
2023-04-02T17:17:25.917Z,1.97
2023-04-02T17:21:40.164Z,1.83
2023-04-02T17:25:58.931Z,4.00
2023-04-02T17:30:35.025Z,2.13
2023-04-02T17:34:46.780Z,1.93
2023-04-02T17:39:32.499Z,2.87
2023-04-02T17:44:08.730Z,1.70
2023-04-02T17:48:31.368Z,1.87
2023-04-02T17:52:53.408Z,2.97
2023-04-02T17:57:32.393Z,3.00
2023-04-02T18:02:01.637Z,1.77
2023-04-02T18:06:27.841Z,2.53
2023-04-02T18:10:59.298Z,2.03
2023-04-02T18:15:48.542Z,2.03
2023-04-02T18:20:03.746Z,1.77
2023-04-02T18:24:28.385Z,1.17
2023-04-02T18:29:07.230Z,1.83
2023-04-02T18:33:54.226Z,2.87
2023-04-02T18:38:33.682Z,4.40
2023-04-02T18:43:12.538Z,3.50
2023-04-02T18:47:48.543Z,2.50
2023-04-02T18:52:12.579Z,1.73
2023-04-02T18:56:25.408Z,4.17
2023-04-02T19:00:42.925Z,5.17
2023-04-02T19:05:12.835Z,4.50
2023-04-02T19:09:47.560Z,2.80
2023-04-02T19:14:00.976Z,3.77
2023-04-02T19:18:38.643Z,1.57
2023-04-02T19:23:02.242Z,2.93
2023-04-02T19:27:32.785Z,2.13
2023-04-02T19:31:50.486Z,3.43
2023-04-02T19:36:24.868Z,5.83
2023-04-02T19:40:47.949Z,5.07
2023-04-02T19:45:00.734Z,3.93
2023-04-02T19:49:22.686Z,2.63
2023-04-02T19:53:35.332Z,3.27
2023-04-02T19:57:46.911Z,3.13
2023-04-02T20:02:05.825Z,2.97
2023-04-02T20:06:18.185Z,3.07
2023-04-02T20:10:29.765Z,3.23
2023-04-02T20:14:41.489Z,3.17
2023-04-02T20:18:53.186Z,2.40
2023-04-02T20:23:05.503Z,1.93
2023-04-02T20:27:17.883Z,2.30
2023-04-02T20:31:29.795Z,2.90
2023-04-02T20:35:41.533Z,3.03
2023-04-02T20:39:53.388Z,2.70
2023-04-02T20:44:05.011Z,3.47
2023-04-02T20:48:16.915Z,3.40
2023-04-02T20:52:30.252Z,1.63
2023-04-02T20:56:43.165Z,2.87
2023-04-02T21:00:54.752Z,2.60
2023-04-02T21:05:06.857Z,1.40
2023-04-02T21:09:19.583Z,2.33
2023-04-02T21:13:33.361Z,2.83
2023-04-02T21:17:45.124Z,4.00
2023-04-02T21:21:56.731Z,2.67
2023-04-02T21:26:35.115Z,4.33
2023-04-02T21:30:46.859Z,2.10
2023-04-02T21:34:58.534Z,2.40
2023-04-02T21:39:23.229Z,2.03
2023-04-02T21:43:34.844Z,4.60
2023-04-02T21:47:46.527Z,4.63
2023-04-02T21:51:58.079Z,1.17
2023-04-02T21:56:16.705Z,2.87
2023-04-02T22:00:28.312Z,2.30
2023-04-02T22:04:41.401Z,1.70
2023-04-02T22:09:01.552Z,1.33
2023-04-02T22:13:13.104Z,1.87
2023-04-02T22:17:24.699Z,2.03
2023-04-02T22:21:37.462Z,2.20
2023-04-02T22:25:49.037Z,1.77
2023-04-02T22:30:00.835Z,1.80
2023-04-02T22:34:12.599Z,2.60
2023-04-02T22:38:24.347Z,1.93
2023-04-02T22:42:38.257Z,1.83
2023-04-02T22:46:49.848Z,4.50
2023-04-02T22:51:01.421Z,1.67
2023-04-02T22:55:15.396Z,1.10
2023-04-02T22:59:26.939Z,2.97
2023-04-02T23:03:38.751Z,2.53
2023-04-02T23:07:50.600Z,1.87
2023-04-02T23:12:02.205Z,3.30
2023-04-02T23:16:14.957Z,1.50
2023-04-02T23:20:26.547Z,1.30
2023-04-02T23:24:38.134Z,1.40
2023-04-02T23:28:50.957Z,2.00
2023-04-02T23:33:04.615Z,9.03
2023-04-02T23:37:16.832Z,1.43
2023-04-02T23:41:30.498Z,1.73
2023-04-02T23:45:46.931Z,1.30
2023-04-02T23:49:58.565Z,1.50
2023-04-02T23:54:14.417Z,1.90
2023-04-02T23:58:26.034Z,2.23
